sensor_id;sensor_type;location;lat;lon;timestamp;pressure;altitude;pressure_sealevel;temperature
70415;BMP280;57837;52.064;113.478;2023-02-28T00:01:51;94680.97;;;-9.11
70415;BMP280;57837;52.064;113.478;2023-02-28T00:04:55;94683.19;;;-9.09
70415;BMP280;57837;52.064;113.478;2023-02-28T00:08:04;94690.56;;;-8.85
70415;BMP280;57837;52.064;113.478;2023-02-28T00:11:13;94700.78;;;-8.63
70415;BMP280;57837;52.064;113.478;2023-02-28T00:14:17;94701.13;;;-8.70
70415;BMP280;57837;52.064;113.478;2023-02-28T00:17:20;94704.25;;;-8.78
70415;BMP280;57837;52.064;113.478;2023-02-28T00:20:26;94706.78;;;-8.78
70415;BMP280;57837;52.064;113.478;2023-02-28T00:23:29;94709.44;;;-8.74
70415;BMP280;57837;52.064;113.478;2023-02-28T00:26:32;94710.53;;;-8.61
70415;BMP280;57837;52.064;113.478;2023-02-28T00:29:35;94714.16;;;-8.54
70415;BMP280;57837;52.064;113.478;2023-02-28T00:32:39;94711.09;;;-8.37
70415;BMP280;57837;52.064;113.478;2023-02-28T00:35:43;94715.41;;;-8.24
70415;BMP280;57837;52.064;113.478;2023-02-28T00:38:50;94710.84;;;-8.08
70415;BMP280;57837;52.064;113.478;2023-02-28T00:41:53;94714.81;;;-7.80
70415;BMP280;57837;52.064;113.478;2023-02-28T00:44:56;94710.88;;;-7.00
70415;BMP280;57837;52.064;113.478;2023-02-28T00:48:00;94711.38;;;-6.36
70415;BMP280;57837;52.064;113.478;2023-02-28T00:51:04;94706.50;;;-5.49
70415;BMP280;57837;52.064;113.478;2023-02-28T00:54:07;94710.41;;;-4.79
70415;BMP280;57837;52.064;113.478;2023-02-28T00:57:11;94712.56;;;-4.22
70415;BMP280;57837;52.064;113.478;2023-02-28T01:00:15;94716.84;;;-3.85
70415;BMP280;57837;52.064;113.478;2023-02-28T01:03:19;94707.06;;;-3.33
70415;BMP280;57837;52.064;113.478;2023-02-28T01:06:23;94708.47;;;-2.78
70415;BMP280;57837;52.064;113.478;2023-02-28T01:09:27;94706.06;;;-2.62
70415;BMP280;57837;52.064;113.478;2023-02-28T01:12:32;94710.47;;;-2.71
70415;BMP280;57837;52.064;113.478;2023-02-28T01:15:38;94711.13;;;-2.74
70415;BMP280;57837;52.064;113.478;2023-02-28T01:18:43;94707.56;;;-2.49
70415;BMP280;57837;52.064;113.478;2023-02-28T01:21:47;94707.53;;;-2.37
70415;BMP280;57837;52.064;113.478;2023-02-28T01:24:50;94701.34;;;-2.27
70415;BMP280;57837;52.064;113.478;2023-02-28T01:27:53;94703.97;;;-2.48
70415;BMP280;57837;52.064;113.478;2023-02-28T01:30:57;94697.72;;;-2.38
70415;BMP280;57837;52.064;113.478;2023-02-28T01:34:00;94700.38;;;-2.47
70415;BMP280;57837;52.064;113.478;2023-02-28T01:37:03;94703.72;;;-2.18
70415;BMP280;57837;52.064;113.478;2023-02-28T01:40:08;94703.97;;;-1.43
70415;BMP280;57837;52.064;113.478;2023-02-28T01:43:29;94700.44;;;-1.11
70415;BMP280;57837;52.064;113.478;2023-02-28T01:46:35;94699.97;;;-1.28
70415;BMP280;57837;52.064;113.478;2023-02-28T01:49:39;94707.94;;;-1.30
70415;BMP280;57837;52.064;113.478;2023-02-28T01:52:43;94699.72;;;-1.39
70415;BMP280;57837;52.064;113.478;2023-02-28T01:55:50;94699.50;;;-1.18
70415;BMP280;57837;52.064;113.478;2023-02-28T01:58:56;94701.31;;;-1.19
70415;BMP280;57837;52.064;113.478;2023-02-28T02:02:00;94704.75;;;-0.80
70415;BMP280;57837;52.064;113.478;2023-02-28T02:05:14;94699.59;;;-0.68
70415;BMP280;57837;52.064;113.478;2023-02-28T02:08:26;94693.34;;;-1.33
70415;BMP280;57837;52.064;113.478;2023-02-28T02:11:32;94693.84;;;-1.27
70415;BMP280;57837;52.064;113.478;2023-02-28T02:44:38;94674.22;;;0.45
70415;BMP280;57837;52.064;113.478;2023-02-28T02:47:44;94674.53;;;0.85
70415;BMP280;57837;52.064;113.478;2023-02-28T02:50:51;94676.13;;;0.93
70415;BMP280;57837;52.064;113.478;2023-02-28T02:57:15;94657.44;;;1.09
70415;BMP280;57837;52.064;113.478;2023-02-28T03:00:52;94655.88;;;1.27
70415;BMP280;57837;52.064;113.478;2023-02-28T03:03:59;94654.25;;;1.71
70415;BMP280;57837;52.064;113.478;2023-02-28T03:07:04;94654.38;;;2.12
70415;BMP280;57837;52.064;113.478;2023-02-28T03:10:27;94645.19;;;1.74
70415;BMP280;57837;52.064;113.478;2023-02-28T03:20:26;94647.81;;;0.98
70415;BMP280;57837;52.064;113.478;2023-02-28T03:23:43;94639.09;;;0.99
70415;BMP280;57837;52.064;113.478;2023-02-28T03:26:57;94633.25;;;0.99
70415;BMP280;57837;52.064;113.478;2023-02-28T03:30:10;94632.41;;;0.46
70415;BMP280;57837;52.064;113.478;2023-02-28T03:33:21;94617.19;;;0.72
70415;BMP280;57837;52.064;113.478;2023-02-28T03:36:30;94617.13;;;0.91
70415;BMP280;57837;52.064;113.478;2023-02-28T03:39:59;94619.34;;;0.47
70415;BMP280;57837;52.064;113.478;2023-02-28T03:43:09;94615.16;;;-0.07
70415;BMP280;57837;52.064;113.478;2023-02-28T03:46:19;94606.31;;;-0.32
70415;BMP280;57837;52.064;113.478;2023-02-28T03:49:27;94602.94;;;0.03
70415;BMP280;57837;52.064;113.478;2023-02-28T03:52:36;94600.59;;;0.13
70415;BMP280;57837;52.064;113.478;2023-02-28T03:55:44;94595.59;;;-0.03
70415;BMP280;57837;52.064;113.478;2023-02-28T03:59:00;94598.25;;;-0.34
70415;BMP280;57837;52.064;113.478;2023-02-28T04:02:05;94599.69;;;-0.52
70415;BMP280;57837;52.064;113.478;2023-02-28T04:05:08;94591.38;;;-0.69
70415;BMP280;57837;52.064;113.478;2023-02-28T04:08:11;94586.28;;;-0.69
70415;BMP280;57837;52.064;113.478;2023-02-28T04:11:20;94583.41;;;-0.67
70415;BMP280;57837;52.064;113.478;2023-02-28T04:14:25;94581.13;;;-0.72
70415;BMP280;57837;52.064;113.478;2023-02-28T04:17:29;94572.94;;;-0.81
70415;BMP280;57837;52.064;113.478;2023-02-28T04:20:33;94575.50;;;-0.81
70415;BMP280;57837;52.064;113.478;2023-02-28T04:23:37;94569.47;;;-0.92
70415;BMP280;57837;52.064;113.478;2023-02-28T04:26:42;94563.28;;;-1.11
70415;BMP280;57837;52.064;113.478;2023-02-28T04:29:47;94558.22;;;-1.26
70415;BMP280;57837;52.064;113.478;2023-02-28T04:32:51;94555.66;;;-1.42
70415;BMP280;57837;52.064;113.478;2023-02-28T04:36:05;94554.69;;;-1.22
70415;BMP280;57837;52.064;113.478;2023-02-28T04:39:09;94543.13;;;-1.19
70415;BMP280;57837;52.064;113.478;2023-02-28T04:42:13;94541.81;;;-1.13
70415;BMP280;57837;52.064;113.478;2023-02-28T04:45:17;94542.47;;;-1.16
70415;BMP280;57837;52.064;113.478;2023-02-28T04:48:20;94536.13;;;-0.91
70415;BMP280;57837;52.064;113.478;2023-02-28T04:51:24;94521.22;;;-0.73
70415;BMP280;57837;52.064;113.478;2023-02-28T04:54:27;94523.38;;;-0.56
70415;BMP280;57837;52.064;113.478;2023-02-28T04:57:31;94518.78;;;-0.31
70415;BMP280;57837;52.064;113.478;2023-02-28T05:00:35;94514.78;;;-0.09
70415;BMP280;57837;52.064;113.478;2023-02-28T05:03:39;94505.53;;;0.25
70415;BMP280;57837;52.064;113.478;2023-02-28T05:06:46;94494.84;;;0.42
70415;BMP280;57837;52.064;113.478;2023-02-28T05:09:49;94492.50;;;0.56
70415;BMP280;57837;52.064;113.478;2023-02-28T05:12:54;94489.03;;;0.94
70415;BMP280;57837;52.064;113.478;2023-02-28T05:15:58;94471.66;;;1.37
70415;BMP280;57837;52.064;113.478;2023-02-28T05:19:01;94473.16;;;1.42
70415;BMP280;57837;52.064;113.478;2023-02-28T05:22:04;94463.09;;;0.89
70415;BMP280;57837;52.064;113.478;2023-02-28T05:25:11;94462.69;;;0.30
70415;BMP280;57837;52.064;113.478;2023-02-28T05:28:16;94471.69;;;-0.21
70415;BMP280;57837;52.064;113.478;2023-02-28T05:31:20;94463.84;;;-0.13
70415;BMP280;57837;52.064;113.478;2023-02-28T05:34:25;94468.41;;;-0.22
70415;BMP280;57837;52.064;113.478;2023-02-28T05:37:29;94465.22;;;0.27
70415;BMP280;57837;52.064;113.478;2023-02-28T05:40:33;94460.84;;;0.84
70415;BMP280;57837;52.064;113.478;2023-02-28T05:43:37;94457.50;;;0.76
70415;BMP280;57837;52.064;113.478;2023-02-28T05:46:41;94449.34;;;0.67
70415;BMP280;57837;52.064;113.478;2023-02-28T05:49:45;94443.41;;;1.16
70415;BMP280;57837;52.064;113.478;2023-02-28T05:52:50;94445.38;;;1.29
70415;BMP280;57837;52.064;113.478;2023-02-28T05:55:54;94441.00;;;0.96
70415;BMP280;57837;52.064;113.478;2023-02-28T05:58:58;94441.38;;;0.68
70415;BMP280;57837;52.064;113.478;2023-02-28T06:02:01;94441.56;;;0.56
70415;BMP280;57837;52.064;113.478;2023-02-28T06:05:07;94438.06;;;0.38
70415;BMP280;57837;52.064;113.478;2023-02-28T06:08:12;94441.16;;;0.02
70415;BMP280;57837;52.064;113.478;2023-02-28T06:11:16;94436.72;;;-0.28
70415;BMP280;57837;52.064;113.478;2023-02-28T06:14:21;94436.31;;;-0.49
70415;BMP280;57837;52.064;113.478;2023-02-28T06:17:25;94439.66;;;-0.87
70415;BMP280;57837;52.064;113.478;2023-02-28T06:20:29;94434.28;;;-0.63
70415;BMP280;57837;52.064;113.478;2023-02-28T06:23:33;94422.69;;;-0.60
70415;BMP280;57837;52.064;113.478;2023-02-28T06:26:36;94427.34;;;-0.43
70415;BMP280;57837;52.064;113.478;2023-02-28T06:29:40;94429.91;;;-0.43
70415;BMP280;57837;52.064;113.478;2023-02-28T06:32:43;94423.53;;;-0.53
70415;BMP280;57837;52.064;113.478;2023-02-28T06:35:50;94415.09;;;-0.60
70415;BMP280;57837;52.064;113.478;2023-02-28T06:38:54;94412.63;;;-0.53
70415;BMP280;57837;52.064;113.478;2023-02-28T06:41:59;94414.78;;;-0.13
70415;BMP280;57837;52.064;113.478;2023-02-28T06:45:04;94408.69;;;-0.09
70415;BMP280;57837;52.064;113.478;2023-02-28T06:48:12;94408.19;;;0.09
70415;BMP280;57837;52.064;113.478;2023-02-28T06:51:18;94415.16;;;0.12
70415;BMP280;57837;52.064;113.478;2023-02-28T06:54:23;94414.91;;;-0.06
70415;BMP280;57837;52.064;113.478;2023-02-28T06:57:28;94407.06;;;0.06
70415;BMP280;57837;52.064;113.478;2023-02-28T07:00:33;94409.22;;;0.30
70415;BMP280;57837;52.064;113.478;2023-02-28T07:03:36;94414.22;;;0.50
70415;BMP280;57837;52.064;113.478;2023-02-28T07:06:39;94419.16;;;0.39
70415;BMP280;57837;52.064;113.478;2023-02-28T07:09:43;94404.81;;;0.27
70415;BMP280;57837;52.064;113.478;2023-02-28T07:12:47;94416.63;;;0.13
70415;BMP280;57837;52.064;113.478;2023-02-28T07:16:04;94417.00;;;-0.12
70415;BMP280;57837;52.064;113.478;2023-02-28T07:19:07;94415.69;;;-0.67
70415;BMP280;57837;52.064;113.478;2023-02-28T07:22:10;94419.63;;;-1.08
70415;BMP280;57837;52.064;113.478;2023-02-28T07:25:16;94421.31;;;-0.96
70415;BMP280;57837;52.064;113.478;2023-02-28T07:28:19;94418.84;;;-0.93
70415;BMP280;57837;52.064;113.478;2023-02-28T07:31:22;94425.53;;;-0.85
70415;BMP280;57837;52.064;113.478;2023-02-28T07:34:25;94421.19;;;-1.04
70415;BMP280;57837;52.064;113.478;2023-02-28T07:37:28;94424.03;;;-1.24
70415;BMP280;57837;52.064;113.478;2023-02-28T07:40:35;94420.50;;;-1.01
70415;BMP280;57837;52.064;113.478;2023-02-28T07:43:38;94426.00;;;-0.98
70415;BMP280;57837;52.064;113.478;2023-02-28T07:46:42;94417.16;;;-0.66
70415;BMP280;57837;52.064;113.478;2023-02-28T07:49:45;94426.00;;;-0.37
70415;BMP280;57837;52.064;113.478;2023-02-28T07:52:49;94426.16;;;-0.49
70415;BMP280;57837;52.064;113.478;2023-02-28T07:55:56;94424.06;;;-0.44
70415;BMP280;57837;52.064;113.478;2023-02-28T07:59:00;94424.69;;;-0.50
70415;BMP280;57837;52.064;113.478;2023-02-28T08:02:04;94418.97;;;-0.67
70415;BMP280;57837;52.064;113.478;2023-02-28T08:05:08;94413.34;;;-0.76
70415;BMP280;57837;52.064;113.478;2023-02-28T08:08:12;94417.69;;;-0.57
70415;BMP280;57837;52.064;113.478;2023-02-28T08:11:16;94422.84;;;-0.73
70415;BMP280;57837;52.064;113.478;2023-02-28T08:14:20;94426.19;;;-1.07
70415;BMP280;57837;52.064;113.478;2023-02-28T08:17:23;94424.34;;;-1.10
70415;BMP280;57837;52.064;113.478;2023-02-28T08:20:27;94431.16;;;-0.95
70415;BMP280;57837;52.064;113.478;2023-02-28T08:23:30;94425.81;;;-0.90
70415;BMP280;57837;52.064;113.478;2023-02-28T08:26:33;94428.69;;;-0.91
70415;BMP280;57837;52.064;113.478;2023-02-28T08:29:38;94430.66;;;-1.20
70415;BMP280;57837;52.064;113.478;2023-02-28T08:32:41;94430.69;;;-1.71
70415;BMP280;57837;52.064;113.478;2023-02-28T08:35:45;94433.22;;;-1.71
70415;BMP280;57837;52.064;113.478;2023-02-28T08:38:48;94430.09;;;-1.80
70415;BMP280;57837;52.064;113.478;2023-02-28T08:41:52;94426.50;;;-2.26
70415;BMP280;57837;52.064;113.478;2023-02-28T08:45:08;94430.47;;;-2.69
70415;BMP280;57837;52.064;113.478;2023-02-28T08:48:11;94426.56;;;-2.94
70415;BMP280;57837;52.064;113.478;2023-02-28T08:51:17;94432.19;;;-3.13
70415;BMP280;57837;52.064;113.478;2023-02-28T08:54:29;94432.16;;;-3.25
70415;BMP280;57837;52.064;113.478;2023-02-28T08:57:34;94435.16;;;-3.35
70415;BMP280;57837;52.064;113.478;2023-02-28T09:00:37;94426.09;;;-3.36
70415;BMP280;57837;52.064;113.478;2023-02-28T09:03:41;94429.63;;;-3.25
70415;BMP280;57837;52.064;113.478;2023-02-28T09:06:45;94435.16;;;-3.35
70415;BMP280;57837;52.064;113.478;2023-02-28T09:09:48;94434.50;;;-3.20
70415;BMP280;57837;52.064;113.478;2023-02-28T09:13:22;94437.13;;;-3.16
70415;BMP280;57837;52.064;113.478;2023-02-28T09:16:26;94426.19;;;-3.33
70415;BMP280;57837;52.064;113.478;2023-02-28T09:19:29;94434.84;;;-3.46
70415;BMP280;57837;52.064;113.478;2023-02-28T09:22:34;94444.44;;;-3.63
70415;BMP280;57837;52.064;113.478;2023-02-28T09:25:46;94457.50;;;-3.61
70415;BMP280;57837;52.064;113.478;2023-02-28T09:28:51;94456.78;;;-3.62
70415;BMP280;57837;52.064;113.478;2023-02-28T09:31:54;94463.31;;;-3.61
70415;BMP280;57837;52.064;113.478;2023-02-28T09:34:58;94466.25;;;-3.83
70415;BMP280;57837;52.064;113.478;2023-02-28T09:38:02;94456.81;;;-4.40
70415;BMP280;57837;52.064;113.478;2023-02-28T09:41:22;94456.47;;;-4.72
70415;BMP280;57837;52.064;113.478;2023-02-28T09:47:41;94463.53;;;-5.15
70415;BMP280;57837;52.064;113.478;2023-02-28T09:50:50;94464.25;;;-5.36
70415;BMP280;57837;52.064;113.478;2023-02-28T09:53:54;94460.84;;;-5.40
70415;BMP280;57837;52.064;113.478;2023-02-28T09:57:32;94460.19;;;-5.58
70415;BMP280;57837;52.064;113.478;2023-02-28T10:00:39;94463.31;;;-5.69
70415;BMP280;57837;52.064;113.478;2023-02-28T10:04:08;94464.56;;;-5.93
70415;BMP280;57837;52.064;113.478;2023-02-28T10:11:00;94466.06;;;-6.18
70415;BMP280;57837;52.064;113.478;2023-02-28T10:14:15;94479.13;;;-6.24
70415;BMP280;57837;52.064;113.478;2023-02-28T10:17:24;94475.56;;;-6.23
70415;BMP280;57837;52.064;113.478;2023-02-28T10:20:33;94473.03;;;-6.23
70415;BMP280;57837;52.064;113.478;2023-02-28T10:23:38;94478.09;;;-6.23
70415;BMP280;57837;52.064;113.478;2023-02-28T10:26:43;94480.75;;;-6.11
70415;BMP280;57837;52.064;113.478;2023-02-28T10:29:55;94488.88;;;-5.88
70415;BMP280;57837;52.064;113.478;2023-02-28T10:32:59;94490.44;;;-5.66
70415;BMP280;57837;52.064;113.478;2023-02-28T10:36:03;94481.66;;;-5.51
70415;BMP280;57837;52.064;113.478;2023-02-28T10:42:38;94488.06;;;-5.54
70415;BMP280;57837;52.064;113.478;2023-02-28T10:45:57;94487.34;;;-5.72
70415;BMP280;57837;52.064;113.478;2023-02-28T10:49:05;94483.38;;;-5.81
70415;BMP280;57837;52.064;113.478;2023-02-28T10:52:09;94480.72;;;-5.94
70415;BMP280;57837;52.064;113.478;2023-02-28T10:55:18;94479.97;;;-5.94
70415;BMP280;57837;52.064;113.478;2023-02-28T10:58:25;94473.03;;;-6.06
70415;BMP280;57837;52.064;113.478;2023-02-28T11:01:46;94480.59;;;-6.06
70415;BMP280;57837;52.064;113.478;2023-02-28T11:04:56;94474.09;;;-6.07
70415;BMP280;57837;52.064;113.478;2023-02-28T11:08:12;94484.91;;;-6.06
70415;BMP280;57837;52.064;113.478;2023-02-28T11:11:17;94481.47;;;-6.02
70415;BMP280;57837;52.064;113.478;2023-02-28T11:14:23;94490.09;;;-6.03
70415;BMP280;57837;52.064;113.478;2023-02-28T11:17:29;94495.56;;;-6.09
70415;BMP280;57837;52.064;113.478;2023-02-28T11:20:34;94493.94;;;-6.14
70415;BMP280;57837;52.064;113.478;2023-02-28T11:23:40;94496.16;;;-6.21
70415;BMP280;57837;52.064;113.478;2023-02-28T11:26:46;94497.78;;;-6.25
70415;BMP280;57837;52.064;113.478;2023-02-28T11:29:51;94494.38;;;-6.29
70415;BMP280;57837;52.064;113.478;2023-02-28T11:32:55;94499.41;;;-6.29
70415;BMP280;57837;52.064;113.478;2023-02-28T11:36:03;94502.81;;;-6.25
70415;BMP280;57837;52.064;113.478;2023-02-28T11:39:10;94500.75;;;-6.40
70415;BMP280;57837;52.064;113.478;2023-02-28T11:52:40;94502.06;;;-6.69
70415;BMP280;57837;52.064;113.478;2023-02-28T11:59:36;94508.69;;;-6.73
70415;BMP280;57837;52.064;113.478;2023-02-28T12:09:04;94511.41;;;-7.18
70415;BMP280;57837;52.064;113.478;2023-02-28T12:16:46;94512.03;;;-7.34
70415;BMP280;57837;52.064;113.478;2023-02-28T12:19:26;94522.09;;;-7.43
70415;BMP280;57837;52.064;113.478;2023-02-28T12:23:00;94519.47;;;-7.60
70415;BMP280;57837;52.064;113.478;2023-02-28T12:26:30;94523.31;;;-8.08
70415;BMP280;57837;52.064;113.478;2023-02-28T12:29:34;94522.66;;;-7.99
70415;BMP280;57837;52.064;113.478;2023-02-28T12:32:46;94525.03;;;-7.94
70415;BMP280;57837;52.064;113.478;2023-02-28T12:35:55;94517.25;;;-8.07
70415;BMP280;57837;52.064;113.478;2023-02-28T12:39:07;94520.22;;;-8.05
70415;BMP280;57837;52.064;113.478;2023-02-28T12:42:22;94526.81;;;-8.45
70415;BMP280;57837;52.064;113.478;2023-02-28T12:45:39;94531.03;;;-8.68
70415;BMP280;57837;52.064;113.478;2023-02-28T12:48:46;94521.78;;;-8.81
70415;BMP280;57837;52.064;113.478;2023-02-28T12:51:51;94530.03;;;-8.80
70415;BMP280;57837;52.064;113.478;2023-02-28T12:58:39;94535.88;;;-8.71
70415;BMP280;57837;52.064;113.478;2023-02-28T13:01:52;94536.78;;;-8.67
70415;BMP280;57837;52.064;113.478;2023-02-28T13:11:31;94554.44;;;-8.31
70415;BMP280;57837;52.064;113.478;2023-02-28T13:14:38;94557.38;;;-8.29
70415;BMP280;57837;52.064;113.478;2023-02-28T13:17:41;94561.47;;;-8.33
70415;BMP280;57837;52.064;113.478;2023-02-28T13:20:48;94554.97;;;-8.34
70415;BMP280;57837;52.064;113.478;2023-02-28T13:40:31;94574.97;;;-8.84
70415;BMP280;57837;52.064;113.478;2023-02-28T13:47:20;94584.56;;;-9.18
70415;BMP280;57837;52.064;113.478;2023-02-28T13:50:34;94577.34;;;-9.20
70415;BMP280;57837;52.064;113.478;2023-02-28T14:07:47;94588.97;;;-9.80
70415;BMP280;57837;52.064;113.478;2023-02-28T14:11:04;94583.97;;;-9.99
70415;BMP280;57837;52.064;113.478;2023-02-28T14:17:33;94579.75;;;-10.23
70415;BMP280;57837;52.064;113.478;2023-02-28T14:20:40;94583.28;;;-10.24
70415;BMP280;57837;52.064;113.478;2023-02-28T14:24:01;94590.94;;;-10.39
70415;BMP280;57837;52.064;113.478;2023-02-28T14:28:06;94587.69;;;-10.63
70415;BMP280;57837;52.064;113.478;2023-02-28T14:37:31;94596.53;;;-10.71
70415;BMP280;57837;52.064;113.478;2023-02-28T14:40:35;94590.28;;;-10.68
70415;BMP280;57837;52.064;113.478;2023-02-28T14:43:51;94589.03;;;-10.71
70415;BMP280;57837;52.064;113.478;2023-02-28T14:46:57;94588.94;;;-10.90
70415;BMP280;57837;52.064;113.478;2023-02-28T14:50:03;94595.22;;;-10.92
70415;BMP280;57837;52.064;113.478;2023-02-28T14:53:18;94596.63;;;-10.81
70415;BMP280;57837;52.064;113.478;2023-02-28T14:56:26;94606.31;;;-10.75
70415;BMP280;57837;52.064;113.478;2023-02-28T14:59:32;94601.19;;;-10.64
70415;BMP280;57837;52.064;113.478;2023-02-28T15:02:38;94601.91;;;-10.59
70415;BMP280;57837;52.064;113.478;2023-02-28T15:05:41;94608.22;;;-10.66
70415;BMP280;57837;52.064;113.478;2023-02-28T15:08:45;94597.84;;;-10.79
70415;BMP280;57837;52.064;113.478;2023-02-28T15:11:49;94600.66;;;-10.85
70415;BMP280;57837;52.064;113.478;2023-02-28T15:14:53;94596.78;;;-10.96
70415;BMP280;57837;52.064;113.478;2023-02-28T15:17:59;94598.19;;;-11.19
70415;BMP280;57837;52.064;113.478;2023-02-28T15:21:07;94603.00;;;-11.28
70415;BMP280;57837;52.064;113.478;2023-02-28T15:27:32;94597.28;;;-11.34
70415;BMP280;57837;52.064;113.478;2023-02-28T15:30:36;94608.28;;;-11.30
70415;BMP280;57837;52.064;113.478;2023-02-28T15:34:15;94608.03;;;-11.33
70415;BMP280;57837;52.064;113.478;2023-02-28T15:37:37;94614.03;;;-11.34
70415;BMP280;57837;52.064;113.478;2023-02-28T15:40:46;94610.41;;;-11.52
70415;BMP280;57837;52.064;113.478;2023-02-28T15:47:24;94605.97;;;-11.65
70415;BMP280;57837;52.064;113.478;2023-02-28T15:50:29;94607.94;;;-11.57
70415;BMP280;57837;52.064;113.478;2023-02-28T15:53:58;94622.97;;;-11.72
70415;BMP280;57837;52.064;113.478;2023-02-28T15:57:04;94635.75;;;-11.79
70415;BMP280;57837;52.064;113.478;2023-02-28T16:00:15;94630.06;;;-11.84
70415;BMP280;57837;52.064;113.478;2023-02-28T16:03:27;94636.53;;;-11.83
70415;BMP280;57837;52.064;113.478;2023-02-28T16:06:39;94647.75;;;-11.86
70415;BMP280;57837;52.064;113.478;2023-02-28T16:09:45;94640.31;;;-12.01
70415;BMP280;57837;52.064;113.478;2023-02-28T16:12:49;94646.06;;;-12.01
70415;BMP280;57837;52.064;113.478;2023-02-28T16:15:53;94643.56;;;-12.01
70415;BMP280;57837;52.064;113.478;2023-02-28T16:18:57;94644.06;;;-11.99
70415;BMP280;57837;52.064;113.478;2023-02-28T16:22:01;94643.31;;;-11.99
70415;BMP280;57837;52.064;113.478;2023-02-28T16:25:04;94637.78;;;-11.86
70415;BMP280;57837;52.064;113.478;2023-02-28T16:28:31;94636.75;;;-11.80
70415;BMP280;57837;52.064;113.478;2023-02-28T16:31:37;94638.69;;;-11.67
70415;BMP280;57837;52.064;113.478;2023-02-28T16:34:42;94650.50;;;-11.88
70415;BMP280;57837;52.064;113.478;2023-02-28T16:37:45;94646.31;;;-11.97
70415;BMP280;57837;52.064;113.478;2023-02-28T16:40:50;94648.06;;;-11.98
70415;BMP280;57837;52.064;113.478;2023-02-28T16:43:55;94647.13;;;-12.12
70415;BMP280;57837;52.064;113.478;2023-02-28T16:47:04;94652.31;;;-12.03
70415;BMP280;57837;52.064;113.478;2023-02-28T16:50:22;94662.03;;;-12.02
70415;BMP280;57837;52.064;113.478;2023-02-28T16:53:26;94684.53;;;-12.12
70415;BMP280;57837;52.064;113.478;2023-02-28T16:56:29;94696.00;;;-12.21
70415;BMP280;57837;52.064;113.478;2023-02-28T16:59:32;94687.25;;;-12.08
70415;BMP280;57837;52.064;113.478;2023-02-28T17:02:36;94691.94;;;-11.92
70415;BMP280;57837;52.064;113.478;2023-02-28T17:05:42;94691.44;;;-11.94
70415;BMP280;57837;52.064;113.478;2023-02-28T17:08:45;94674.22;;;-11.95
70415;BMP280;57837;52.064;113.478;2023-02-28T17:11:49;94677.03;;;-12.12
70415;BMP280;57837;52.064;113.478;2023-02-28T17:14:53;94667.59;;;-12.25
70415;BMP280;57837;52.064;113.478;2023-02-28T17:17:57;94668.88;;;-12.33
70415;BMP280;57837;52.064;113.478;2023-02-28T17:21:00;94678.59;;;-12.52
70415;BMP280;57837;52.064;113.478;2023-02-28T17:24:05;94682.38;;;-12.69
70415;BMP280;57837;52.064;113.478;2023-02-28T17:27:11;94680.13;;;-12.61
70415;BMP280;57837;52.064;113.478;2023-02-28T17:30:18;94671.91;;;-12.61
70415;BMP280;57837;52.064;113.478;2023-02-28T17:33:22;94676.88;;;-12.82
70415;BMP280;57837;52.064;113.478;2023-02-28T17:36:26;94672.63;;;-12.81
70415;BMP280;57837;52.064;113.478;2023-02-28T17:39:30;94660.41;;;-12.73
70415;BMP280;57837;52.064;113.478;2023-02-28T17:42:34;94663.66;;;-12.72
70415;BMP280;57837;52.064;113.478;2023-02-28T17:45:38;94671.13;;;-12.87
70415;BMP280;57837;52.064;113.478;2023-02-28T17:48:42;94664.91;;;-12.95
70415;BMP280;57837;52.064;113.478;2023-02-28T17:51:46;94668.88;;;-13.04
70415;BMP280;57837;52.064;113.478;2023-02-28T17:54:51;94672.59;;;-13.12
70415;BMP280;57837;52.064;113.478;2023-02-28T17:57:54;94661.38;;;-13.24
70415;BMP280;57837;52.064;113.478;2023-02-28T18:00:57;94674.34;;;-13.17
70415;BMP280;57837;52.064;113.478;2023-02-28T18:04:00;94673.38;;;-13.16
70415;BMP280;57837;52.064;113.478;2023-02-28T18:07:08;94667.13;;;-13.19
70415;BMP280;57837;52.064;113.478;2023-02-28T18:10:18;94662.38;;;-13.25
70415;BMP280;57837;52.064;113.478;2023-02-28T18:13:22;94671.88;;;-13.22
70415;BMP280;57837;52.064;113.478;2023-02-28T18:16:25;94684.56;;;-13.19
70415;BMP280;57837;52.064;113.478;2023-02-28T18:19:29;94670.59;;;-13.25
70415;BMP280;57837;52.064;113.478;2023-02-28T18:22:33;94675.06;;;-13.32
70415;BMP280;57837;52.064;113.478;2023-02-28T18:25:39;94673.81;;;-13.35
70415;BMP280;57837;52.064;113.478;2023-02-28T18:28:43;94674.06;;;-13.36
70415;BMP280;57837;52.064;113.478;2023-02-28T18:31:47;94668.59;;;-13.33
70415;BMP280;57837;52.064;113.478;2023-02-28T18:34:51;94665.06;;;-13.37
70415;BMP280;57837;52.064;113.478;2023-02-28T18:37:54;94669.06;;;-13.46
70415;BMP280;57837;52.064;113.478;2023-02-28T18:41:01;94666.81;;;-13.53
70415;BMP280;57837;52.064;113.478;2023-02-28T18:44:06;94670.50;;;-13.61
70415;BMP280;57837;52.064;113.478;2023-02-28T18:47:20;94657.56;;;-13.57
70415;BMP280;57837;52.064;113.478;2023-02-28T18:50:24;94662.81;;;-13.54
70415;BMP280;57837;52.064;113.478;2023-02-28T18:53:28;94653.63;;;-13.48
70415;BMP280;57837;52.064;113.478;2023-02-28T18:56:31;94668.56;;;-13.48
70415;BMP280;57837;52.064;113.478;2023-02-28T18:59:34;94663.34;;;-13.47
70415;BMP280;57837;52.064;113.478;2023-02-28T19:02:38;94672.06;;;-13.49
70415;BMP280;57837;52.064;113.478;2023-02-28T19:05:43;94680.72;;;-13.57
70415;BMP280;57837;52.064;113.478;2023-02-28T19:08:46;94685.41;;;-13.66
70415;BMP280;57837;52.064;113.478;2023-02-28T19:11:50;94687.63;;;-13.69
70415;BMP280;57837;52.064;113.478;2023-02-28T19:14:54;94682.91;;;-13.66
70415;BMP280;57837;52.064;113.478;2023-02-28T19:17:57;94683.19;;;-13.62
70415;BMP280;57837;52.064;113.478;2023-02-28T19:21:01;94674.50;;;-13.60
70415;BMP280;57837;52.064;113.478;2023-02-28T19:24:05;94674.75;;;-13.61
70415;BMP280;57837;52.064;113.478;2023-02-28T19:27:09;94682.41;;;-13.68
70415;BMP280;57837;52.064;113.478;2023-02-28T19:30:12;94682.41;;;-13.73
70415;BMP280;57837;52.064;113.478;2023-02-28T19:33:16;94674.97;;;-13.73
70415;BMP280;57837;52.064;113.478;2023-02-28T19:36:20;94679.69;;;-13.66
70415;BMP280;57837;52.064;113.478;2023-02-28T19:39:24;94675.94;;;-13.69